Time;durP1;ratioP1;P1;durP2;ratioP2;P2;SDS_P1;SDS_P2;PMS_P1;PMS_P2;Temp;Humidity;BMP_temperature;BMP_pressure;BME280_temperature;BME280_humidity;BME280_pressure;Samples;Min_cycle;Max_cycle;Signal;HPM_P1;HPM_P2
2023/01/14 00:01:11;;;;;;;7.23;2.00;;;;;;;;;;5013312;28;20421;-80
2023/01/14 00:03:37;;;;;;;5.57;1.33;;;;;;;;;;5011339;28;20097;-79
2023/01/14 00:06:03;;;;;;;4.40;1.53;;;;;;;;;;5012863;28;20061;-80
2023/01/14 00:08:29;;;;;;;10.57;1.50;;;;;;;;;;5011548;28;20022;-80
2023/01/14 00:10:55;;;;;;;5.13;1.40;;;;;;;;;;5011597;28;20048;-80
2023/01/14 00:13:21;;;;;;;4.40;1.60;;;;;;;;;;5011034;28;20522;-80
2023/01/14 00:15:55;;;;;;;5.53;1.70;;;;;;;;;;5011056;28;20022;-80
2023/01/14 00:18:21;;;;;;;7.50;2.07;;;;;;;;;;5010331;28;20121;-79
2023/01/14 00:21:00;;;;;;;3.23;1.20;;;;;;;;;;5011067;28;20021;-81
2023/01/14 00:23:26;;;;;;;5.73;1.40;;;;;;;;;;5010756;28;20474;-81
2023/01/14 00:25:52;;;;;;;2.63;1.27;;;;;;;;;;5013012;28;20163;-79
2023/01/14 00:28:18;;;;;;;4.07;1.53;;;;;;;;;;5011208;28;20018;-80
2023/01/14 00:30:43;;;;;;;4.10;1.47;;;;;;;;;;5011299;28;20026;-80
2023/01/14 00:33:09;;;;;;;3.43;1.33;;;;;;;;;;5011099;28;20052;-80
2023/01/14 00:35:35;;;;;;;3.80;1.50;;;;;;;;;;5010629;28;20454;-80
2023/01/14 00:38:01;;;;;;;7.87;1.30;;;;;;;;;;5002671;28;20045;-78
2023/01/14 00:40:26;;;;;;;3.20;1.00;;;;;;;;;;5030098;28;20588;-80
2023/01/14 00:42:52;;;;;;;4.77;1.30;;;;;;;;;;5030059;28;20022;-79
2023/01/14 00:45:17;;;;;;;3.33;1.20;;;;;;;;;;5029851;28;20040;-78
2023/01/14 00:47:42;;;;;;;4.70;0.97;;;;;;;;;;5030012;28;20048;-80
2023/01/14 00:50:10;;;;;;;4.90;1.50;;;;;;;;;;5030000;28;20040;-80
2023/01/14 00:52:35;;;;;;;4.43;1.20;;;;;;;;;;5029850;28;20083;-80
2023/01/14 00:55:01;;;;;;;4.43;0.93;;;;;;;;;;5031619;28;20026;-80
2023/01/14 00:57:27;;;;;;;2.53;1.27;;;;;;;;;;5029825;28;20029;-80
2023/01/14 00:59:52;;;;;;;3.50;0.97;;;;;;;;;;5030144;28;20041;-81
2023/01/14 01:02:17;;;;;;;6.73;1.40;;;;;;;;;;5031766;28;20037;-80
2023/01/14 01:04:43;;;;;;;5.33;1.23;;;;;;;;;;5032084;28;20110;-81
2023/01/14 01:07:09;;;;;;;4.10;0.93;;;;;;;;;;5032781;28;20033;-81
2023/01/14 01:09:34;;;;;;;4.47;1.13;;;;;;;;;;5036698;28;20473;-80
2023/01/14 01:12:00;;;;;;;9.50;1.20;;;;;;;;;;5029700;28;20111;-79
2023/01/14 01:14:25;;;;;;;4.30;1.50;;;;;;;;;;5030858;28;20049;-80
2023/01/14 01:16:51;;;;;;;4.50;0.90;;;;;;;;;;5031134;28;20032;-81
2023/01/14 01:19:16;;;;;;;4.50;1.17;;;;;;;;;;5029826;28;20036;-79
2023/01/14 01:21:42;;;;;;;3.77;1.23;;;;;;;;;;5030110;28;20026;-80
2023/01/14 01:24:08;;;;;;;4.33;0.77;;;;;;;;;;5013819;28;20386;-80
2023/01/14 01:26:33;;;;;;;4.67;1.17;;;;;;;;;;5029755;28;20147;-80
2023/01/14 01:29:00;;;;;;;2.20;0.90;;;;;;;;;;5031216;28;20025;-80
2023/01/14 01:31:27;;;;;;;5.53;2.00;;;;;;;;;;5029710;28;20037;-79
2023/01/14 01:33:53;;;;;;;4.33;1.27;;;;;;;;;;5030653;28;20060;-80
2023/01/14 01:36:22;;;;;;;4.90;1.10;;;;;;;;;;5031134;28;20040;-80
2023/01/14 01:38:48;;;;;;;2.50;1.30;;;;;;;;;;5030803;28;20060;-80
2023/01/14 01:41:23;;;;;;;10.90;1.27;;;;;;;;;;5029541;28;20025;-79
2023/01/14 01:44:13;;;;;;;3.17;0.87;;;;;;;;;;5029572;28;20342;-79
2023/01/14 01:46:41;;;;;;;5.73;1.40;;;;;;;;;;5029628;28;20036;-79
2023/01/14 01:49:25;;;;;;;8.23;1.50;;;;;;;;;;5029844;28;20035;-80
2023/01/14 01:51:53;;;;;;;3.70;0.93;;;;;;;;;;5031117;28;20033;-80
2023/01/14 01:54:26;;;;;;;3.40;1.37;;;;;;;;;;5029333;28;20026;-79
2023/01/14 01:56:53;;;;;;;5.43;1.57;;;;;;;;;;5030713;28;20060;-80
2023/01/14 01:59:25;;;;;;;5.73;1.50;;;;;;;;;;5028668;28;20049;-79
2023/01/14 02:01:53;;;;;;;4.95;0.82;;;;;;;;;;5027790;28;20493;-79
2023/01/14 02:04:19;;;;;;;4.50;1.37;;;;;;;;;;5029984;28;20124;-80
2023/01/14 02:06:44;;;;;;;4.43;0.87;;;;;;;;;;5028414;28;20125;-80
2023/01/14 02:09:11;;;;;;;3.70;0.80;;;;;;;;;;5027119;28;20510;-80
2023/01/14 02:11:39;;;;;;;4.87;0.87;;;;;;;;;;5028397;28;20025;-79
2023/01/14 02:14:07;;;;;;;3.23;1.53;;;;;;;;;;5028568;28;20025;-79
2023/01/14 02:17:05;;;;;;;5.40;0.93;;;;;;;;;;5028627;28;20026;-80
2023/01/14 02:19:52;;;;;;;6.43;1.17;;;;;;;;;;5006272;28;20064;-81
2023/01/14 02:22:34;;;;;;;7.37;1.10;;;;;;;;;;5028910;28;20028;-81
2023/01/14 02:25:17;;;;;;;2.67;0.80;;;;;;;;;;5030925;28;20037;-81
2023/01/14 02:27:45;;;;;;;5.53;1.10;;;;;;;;;;5030774;28;20021;-81
2023/01/14 02:30:32;;;;;;;3.57;1.07;;;;;;;;;;5037103;28;20477;-79
2023/01/14 02:33:23;;;;;;;3.43;1.33;;;;;;;;;;5042841;28;20029;-78
2023/01/14 02:36:01;;;;;;;7.83;1.80;;;;;;;;;;5038001;28;20035;-79
2023/01/14 02:38:31;;;;;;;8.97;1.83;;;;;;;;;;5030799;28;20048;-81
2023/01/14 02:41:15;;;;;;;4.87;1.13;;;;;;;;;;5030664;28;20029;-81
2023/01/14 02:44:10;;;;;;;3.17;1.33;;;;;;;;;;5029839;28;20128;-80
2023/01/14 02:46:42;;;;;;;8.97;1.67;;;;;;;;;;5028311;28;20719;-80
2023/01/14 02:49:13;;;;;;;8.00;1.20;;;;;;;;;;5028404;28;20080;-80
2023/01/14 02:51:39;;;;;;;8.13;1.20;;;;;;;;;;5028203;28;20087;-80
2023/01/14 02:54:05;;;;;;;5.37;0.77;;;;;;;;;;5029615;28;20030;-81
2023/01/14 02:56:32;;;;;;;4.90;1.17;;;;;;;;;;5029916;28;20611;-81
2023/01/14 02:59:03;;;;;;;5.43;1.20;;;;;;;;;;5012375;28;20029;-80
2023/01/14 03:02:12;;;;;;;3.83;1.02;;;;;;;;;;5028441;28;20025;-81
2023/01/14 03:05:08;;;;;;;6.43;1.20;;;;;;;;;;5032145;28;20485;-78
2023/01/14 03:07:45;;;;;;;8.30;1.50;;;;;;;;;;5030666;28;20036;-81
2023/01/14 03:10:33;;;;;;;11.87;1.33;;;;;;;;;;5029088;28;20029;-80
2023/01/14 03:13:15;;;;;;;3.30;1.00;;;;;;;;;;5030466;28;20113;-80
2023/01/14 03:15:49;;;;;;;1.83;0.73;;;;;;;;;;5034061;28;20153;-80
2023/01/14 03:18:19;;;;;;;2.43;1.13;;;;;;;;;;5032848;28;20116;-80
2023/01/14 03:20:52;;;;;;;7.43;1.30;;;;;;;;;;5032565;28;20029;-80
2023/01/14 03:23:20;;;;;;;1.80;0.80;;;;;;;;;;5032712;28;20036;-80
2023/01/14 03:25:49;;;;;;;7.47;1.30;;;;;;;;;;5034183;28;20068;-81
2023/01/14 03:28:29;;;;;;;4.20;1.27;;;;;;;;;;5034923;28;20029;-80
2023/01/14 03:31:05;;;;;;;7.20;1.47;;;;;;;;;;5033848;28;20062;-81
2023/01/14 03:33:36;;;;;;;5.93;0.90;;;;;;;;;;5034779;28;20025;-79
2023/01/14 03:36:04;;;;;;;2.75;1.27;;;;;;;;;;5034947;28;20037;-80
2023/01/14 03:38:33;;;;;;;8.53;1.27;;;;;;;;;;5032404;28;20544;-81
2023/01/14 03:41:00;;;;;;;6.33;1.37;;;;;;;;;;5033595;28;20041;-81
2023/01/14 03:43:34;;;;;;;8.80;1.27;;;;;;;;;;5032800;28;20053;-81
2023/01/14 03:46:01;;;;;;;7.47;1.73;;;;;;;;;;5033846;28;20156;-80
2023/01/14 03:48:27;;;;;;;2.80;1.03;;;;;;;;;;5033441;28;20106;-80
2023/01/14 03:51:22;;;;;;;3.13;1.57;;;;;;;;;;5031960;28;20124;-79
2023/01/14 03:54:07;;;;;;;8.60;1.40;;;;;;;;;;5027939;28;20472;-78
2023/01/14 03:56:54;;;;;;;4.33;1.10;;;;;;;;;;5031693;28;20048;-80
2023/01/14 03:59:28;;;;;;;2.67;1.00;;;;;;;;;;5033261;28;20032;-80
2023/01/14 04:01:55;;;;;;;6.90;1.00;;;;;;;;;;5034314;28;20120;-81
2023/01/14 04:04:24;;;;;;;3.57;0.93;;;;;;;;;;5033799;28;20638;-81
2023/01/14 04:06:51;;;;;;;8.50;1.70;;;;;;;;;;5032994;28;20377;-78
2023/01/14 04:09:16;;;;;;;6.33;1.20;;;;;;;;;;5032833;28;20092;-80
2023/01/14 04:11:42;;;;;;;3.27;1.30;;;;;;;;;;5030796;28;20083;-78
2023/01/14 04:16:52;;;;;;;6.53;1.10;;;;;;;;;;5032289;28;20048;-80
2023/01/14 04:19:18;;;;;;;3.40;1.00;;;;;;;;;;5032442;28;20026;-80
2023/01/14 04:21:44;;;;;;;7.17;1.37;;;;;;;;;;5030921;28;20124;-80
2023/01/14 04:24:09;;;;;;;6.93;1.50;;;;;;;;;;5030262;28;20029;-79
2023/01/14 04:26:35;;;;;;;4.60;1.23;;;;;;;;;;5030664;28;20465;-79
2023/01/14 04:29:00;;;;;;;6.07;1.60;;;;;;;;;;5030889;28;20025;-79
2023/01/14 04:31:26;;;;;;;2.37;1.10;;;;;;;;;;5030870;28;20030;-80
2023/01/14 04:33:51;;;;;;;7.10;1.50;;;;;;;;;;5032423;28;20038;-79
2023/01/14 04:36:21;;;;;;;9.30;1.27;;;;;;;;;;5032630;28;20034;-83
2023/01/14 04:38:47;;;;;;;9.30;1.57;;;;;;;;;;5030800;28;20026;-81
2023/01/14 04:42:26;;;;;;;3.63;1.20;;;;;;;;;;5032773;28;20084;-81
2023/01/14 04:43:59;;;;;;;4.47;2.10;;;;;;;;;;5032657;28;20053;-81
2023/01/14 04:46:25;;;;;;;7.00;1.40;;;;;;;;;;5031980;28;20401;-81
2023/01/14 04:48:50;;;;;;;3.47;1.00;;;;;;;;;;5013943;28;20029;-81
2023/01/14 04:51:16;;;;;;;2.77;1.40;;;;;;;;;;5031942;28;20600;-80
2023/01/14 04:53:41;;;;;;;5.77;1.00;;;;;;;;;;5030506;28;20026;-80
2023/01/14 04:56:07;;;;;;;4.97;2.23;;;;;;;;;;5030684;28;20036;-80
2023/01/14 04:58:32;;;;;;;4.07;1.00;;;;;;;;;;5030275;28;20030;-80
2023/01/14 05:00:59;;;;;;;5.30;1.17;;;;;;;;;;5030137;28;20029;-80
2023/01/14 05:03:25;;;;;;;3.63;1.50;;;;;;;;;;5031644;28;20037;-79
2023/01/14 05:05:50;;;;;;;3.90;1.40;;;;;;;;;;5032414;28;20029;-79
2023/01/14 05:08:16;;;;;;;3.77;0.97;;;;;;;;;;5031307;28;20028;-80
2023/01/14 05:10:42;;;;;;;2.97;1.50;;;;;;;;;;5031031;28;20033;-80
2023/01/14 05:13:07;;;;;;;5.77;1.40;;;;;;;;;;5030581;28;20452;-80
2023/01/14 05:15:41;;;;;;;2.67;0.87;;;;;;;;;;5030158;28;20042;-81
2023/01/14 05:18:09;;;;;;;2.17;1.50;;;;;;;;;;5030753;28;20036;-79
2023/01/14 05:20:35;;;;;;;3.33;1.30;;;;;;;;;;5031647;28;20068;-80
2023/01/14 05:23:03;;;;;;;5.33;0.97;;;;;;;;;;5032355;28;20069;-80
2023/01/14 05:25:31;;;;;;;7.00;1.10;;;;;;;;;;5031573;28;20033;-79
2023/01/14 05:28:02;;;;;;;3.57;0.80;;;;;;;;;;5030031;28;20036;-80
2023/01/14 05:30:28;;;;;;;4.17;0.90;;;;;;;;;;5030245;28;20602;-79
2023/01/14 05:32:54;;;;;;;1.93;1.00;;;;;;;;;;5030041;28;20508;-79
2023/01/14 05:35:20;;;;;;;3.17;0.80;;;;;;;;;;5013300;28;20489;-79
2023/01/14 05:37:46;;;;;;;7.73;0.90;;;;;;;;;;5022473;28;20030;-79
2023/01/14 05:40:12;;;;;;;2.00;0.73;;;;;;;;;;5009940;28;20092;-80
2023/01/14 05:48:06;;;;;;;2.10;1.10;;;;;;;;;;5011447;28;20169;-80
2023/01/14 05:50:32;;;;;;;3.27;1.13;;;;;;;;;;5009680;28;20034;-78
2023/01/14 05:52:58;;;;;;;6.23;1.03;;;;;;;;;;5009880;28;20485;-80
2023/01/14 05:55:23;;;;;;;2.13;1.30;;;;;;;;;;5009570;28;20131;-81
2023/01/14 05:57:49;;;;;;;4.53;1.20;;;;;;;;;;5008688;28;20030;-81
2023/01/14 06:08:29;;;;;;;4.03;1.10;;;;;;;;;;5030437;28;20073;-81
2023/01/14 06:10:55;;;;;;;5.53;1.40;;;;;;;;;;5029784;28;20033;-80
2023/01/14 06:13:24;;;;;;;3.03;1.10;;;;;;;;;;5030322;28;20025;-80
2023/01/14 06:15:55;;;;;;;10.03;1.93;;;;;;;;;;5028933;28;20029;-81
2023/01/14 06:18:23;;;;;;;3.55;0.90;;;;;;;;;;5030585;28;20129;-80
2023/01/14 06:20:53;;;;;;;4.17;1.20;;;;;;;;;;5030256;28;20037;-80
2023/01/14 06:23:21;;;;;;;7.53;1.53;;;;;;;;;;5030945;28;20079;-80
2023/01/14 06:25:49;;;;;;;1.53;1.03;;;;;;;;;;5029945;28;20025;-81
2023/01/14 06:28:16;;;;;;;6.37;1.33;;;;;;;;;;5030846;28;20029;-80
2023/01/14 06:30:42;;;;;;;5.23;1.20;;;;;;;;;;5030512;28;20029;-81
2023/01/14 06:33:09;;;;;;;3.63;1.60;;;;;;;;;;5032128;28;20036;-81
2023/01/14 06:35:39;;;;;;;5.50;1.40;;;;;;;;;;5042064;28;20025;-81
2023/01/14 06:38:05;;;;;;;4.50;1.00;;;;;;;;;;5037114;28;20041;-81
2023/01/14 06:40:30;;;;;;;10.73;1.77;;;;;;;;;;5029759;28;20021;-80
2023/01/14 06:42:56;;;;;;;3.40;0.83;;;;;;;;;;5029828;28;20555;-80
2023/01/14 06:45:23;;;;;;;4.80;1.23;;;;;;;;;;5030166;28;20072;-80
2023/01/14 06:47:48;;;;;;;1.40;1.00;;;;;;;;;;5029112;28;20035;-80
2023/01/14 06:50:17;;;;;;;5.00;0.90;;;;;;;;;;5030171;28;20396;-80
2023/01/14 06:52:42;;;;;;;4.13;1.07;;;;;;;;;;5029966;28;20484;-80
2023/01/14 06:55:08;;;;;;;8.33;1.00;;;;;;;;;;5030089;28;20033;-81
2023/01/14 06:57:34;;;;;;;4.00;1.20;;;;;;;;;;5028277;28;20516;-81
2023/01/14 06:59:59;;;;;;;5.20;0.97;;;;;;;;;;5028436;28;20098;-81
2023/01/14 07:02:25;;;;;;;2.97;0.90;;;;;;;;;;5030047;28;20033;-81
2023/01/14 07:04:50;;;;;;;2.43;1.17;;;;;;;;;;5028653;28;20037;-81
2023/01/14 07:07:16;;;;;;;4.23;0.90;;;;;;;;;;5029336;28;20464;-81
2023/01/14 07:09:42;;;;;;;5.23;1.07;;;;;;;;;;5028266;28;20036;-81
2023/01/14 07:12:08;;;;;;;5.10;0.90;;;;;;;;;;5030157;28;20022;-80
2023/01/14 07:14:33;;;;;;;4.77;1.27;;;;;;;;;;5028104;28;20096;-81
2023/01/14 07:17:01;;;;;;;6.83;0.90;;;;;;;;;;5028242;28;20041;-82
2023/01/14 07:19:26;;;;;;;4.57;1.30;;;;;;;;;;5029935;28;20085;-82
2023/01/14 07:21:52;;;;;;;5.60;1.30;;;;;;;;;;5029990;28;20025;-83
2023/01/14 07:24:17;;;;;;;2.70;1.00;;;;;;;;;;5028426;28;20438;-81
2023/01/14 07:26:43;;;;;;;4.07;1.17;;;;;;;;;;5028195;28;20033;-81
2023/01/14 07:29:09;;;;;;;5.23;1.00;;;;;;;;;;5028287;28;20107;-81
2023/01/14 07:31:35;;;;;;;3.33;1.60;;;;;;;;;;5028222;28;20049;-81
2023/01/14 07:34:00;;;;;;;2.60;1.63;;;;;;;;;;5028577;28;20053;-81
2023/01/14 07:36:26;;;;;;;7.33;1.97;;;;;;;;;;5028438;28;20111;-80
2023/01/14 07:38:51;;;;;;;2.43;1.30;;;;;;;;;;5029238;28;20092;-82
2023/01/14 07:41:18;;;;;;;3.00;1.30;;;;;;;;;;5030551;28;20462;-81
2023/01/14 07:43:44;;;;;;;7.10;1.33;;;;;;;;;;5029379;28;20063;-81
2023/01/14 07:46:10;;;;;;;7.00;1.47;;;;;;;;;;5028963;28;20064;-81
2023/01/14 07:48:37;;;;;;;7.53;1.53;;;;;;;;;;5028713;28;20476;-80
2023/01/14 07:51:04;;;;;;;4.83;1.30;;;;;;;;;;5029668;28;20540;-81
2023/01/14 07:53:30;;;;;;;7.93;1.63;;;;;;;;;;5027936;28;20029;-80
2023/01/14 07:55:59;;;;;;;7.03;1.43;;;;;;;;;;5029392;28;20052;-80
2023/01/14 07:58:25;;;;;;;8.63;1.60;;;;;;;;;;5028400;28;20112;-80
2023/01/14 08:00:50;;;;;;;2.63;1.20;;;;;;;;;;5033409;28;20152;-80
2023/01/14 08:03:16;;;;;;;6.97;1.40;;;;;;;;;;5034816;28;20027;-81
2023/01/14 08:05:41;;;;;;;7.13;1.40;;;;;;;;;;5036769;28;20113;-82
2023/01/14 08:08:07;;;;;;;6.00;1.47;;;;;;;;;;5036935;28;20445;-80
2023/01/14 08:10:32;;;;;;;6.40;1.67;;;;;;;;;;5032996;28;20053;-80
2023/01/14 08:12:58;;;;;;;5.27;1.30;;;;;;;;;;5031502;28;20183;-82
2023/01/14 08:15:23;;;;;;;5.20;1.30;;;;;;;;;;5032161;28;20026;-81
2023/01/14 08:17:49;;;;;;;2.40;1.23;;;;;;;;;;5032909;28;20026;-79
2023/01/14 08:20:15;;;;;;;5.17;1.10;;;;;;;;;;5031864;28;20041;-80
2023/01/14 08:22:41;;;;;;;5.30;1.40;;;;;;;;;;5031442;28;20164;-81
2023/01/14 08:25:07;;;;;;;13.07;3.17;;;;;;;;;;5032287;28;20116;-80
2023/01/14 08:27:33;;;;;;;6.83;2.10;;;;;;;;;;5032121;28;20018;-80
2023/01/14 08:29:59;;;;;;;5.67;1.53;;;;;;;;;;5031262;28;20021;-82
2023/01/14 08:32:25;;;;;;;6.37;1.73;;;;;;;;;;5031736;28;20021;-83
2023/01/14 08:34:51;;;;;;;4.77;2.30;;;;;;;;;;5032843;28;20124;-82
2023/01/14 08:37:16;;;;;;;9.93;2.00;;;;;;;;;;5031181;28;20130;-81
2023/01/14 08:39:42;;;;;;;7.23;1.87;;;;;;;;;;5031601;28;20029;-81
2023/01/14 08:42:07;;;;;;;6.23;1.50;;;;;;;;;;5031791;28;20061;-81
2023/01/14 08:44:33;;;;;;;11.43;2.93;;;;;;;;;;5031648;28;20045;-80
2023/01/14 08:46:58;;;;;;;8.70;1.97;;;;;;;;;;5032630;28;20060;-82
2023/01/14 08:49:24;;;;;;;8.00;1.97;;;;;;;;;;5033094;28;20049;-82
2023/01/14 08:51:50;;;;;;;5.33;1.70;;;;;;;;;;5032583;28;20060;-81
2023/01/14 08:54:15;;;;;;;4.57;0.90;;;;;;;;;;5014928;28;20136;-82
2023/01/14 08:56:42;;;;;;;5.87;1.70;;;;;;;;;;5032697;28;20021;-81
2023/01/14 08:59:10;;;;;;;7.70;2.53;;;;;;;;;;5032376;28;20105;-82
2023/01/14 09:01:35;;;;;;;9.53;1.40;;;;;;;;;;5032221;28;20025;-83
2023/01/14 09:04:01;;;;;;;4.53;1.10;;;;;;;;;;5032429;28;20412;-82
2023/01/14 09:06:27;;;;;;;7.77;1.70;;;;;;;;;;5035847;28;20080;-80
2023/01/14 09:17:21;;;;;;;6.93;1.90;;;;;;;;;;5033134;28;20696;-80
2023/01/14 09:19:58;;;;;;;4.23;1.30;;;;;;;;;;5030525;28;20027;-82
2023/01/14 09:22:30;;;;;;;6.67;1.00;;;;;;;;;;5033033;28;20041;-80
2023/01/14 09:24:56;;;;;;;6.63;1.58;;;;;;;;;;5031888;28;20049;-81
2023/01/14 09:27:22;;;;;;;7.33;1.20;;;;;;;;;;5032641;28;20031;-81
2023/01/14 09:29:48;;;;;;;5.93;1.47;;;;;;;;;;5032352;28;20025;-80
2023/01/14 09:32:16;;;;;;;8.67;1.43;;;;;;;;;;5031340;28;20099;-80
2023/01/14 09:34:47;;;;;;;10.57;2.10;;;;;;;;;;5014670;28;20025;-80
2023/01/14 09:37:14;;;;;;;4.35;1.70;;;;;;;;;;5031106;28;20032;-82
2023/01/14 09:39:40;;;;;;;3.37;1.07;;;;;;;;;;5011741;28;20032;-86
2023/01/14 09:42:11;;;;;;;10.30;1.70;;;;;;;;;;5011319;28;20104;-80
2023/01/14 09:44:43;;;;;;;11.23;2.30;;;;;;;;;;5012984;28;20076;-80
2023/01/14 09:47:14;;;;;;;7.15;1.60;;;;;;;;;;5012037;28;20034;-81
2023/01/14 09:49:40;;;;;;;5.80;1.40;;;;;;;;;;5015211;28;20029;-81
2023/01/14 09:52:54;;;;;;;7.67;1.40;;;;;;;;;;5011903;28;20117;-81
2023/01/14 09:55:38;;;;;;;5.10;1.03;;;;;;;;;;4970502;28;20031;-83
2023/01/14 09:58:12;;;;;;;5.57;1.30;;;;;;;;;;4971096;28;20037;-81
2023/01/14 10:00:47;;;;;;;9.20;1.90;;;;;;;;;;4994214;28;20037;-79
2023/01/14 10:03:18;;;;;;;7.80;1.23;;;;;;;;;;5011222;28;20481;-81
2023/01/14 10:06:14;;;;;;;6.55;1.65;;;;;;;;;;5012357;28;20452;-81
2023/01/14 10:09:02;;;;;;;5.70;1.50;;;;;;;;;;5011758;28;20086;-81
2023/01/14 10:11:32;;;;;;;4.97;1.07;;;;;;;;;;5012767;28;20116;-80
2023/01/14 10:14:11;;;;;;;2.20;1.00;;;;;;;;;;5011381;28;20033;-83
2023/01/14 10:16:42;;;;;;;8.00;1.53;;;;;;;;;;5012539;28;20041;-81
2023/01/14 10:19:32;;;;;;;9.27;1.33;;;;;;;;;;5013274;28;20109;-81
2023/01/14 10:22:09;;;;;;;6.03;1.77;;;;;;;;;;5011106;28;20053;-82
2023/01/14 10:24:36;;;;;;;7.17;2.13;;;;;;;;;;5013632;28;20072;-80
2023/01/14 10:27:16;;;;;;;4.83;1.63;;;;;;;;;;5013898;28;20466;-82
2023/01/14 10:29:42;;;;;;;4.47;1.20;;;;;;;;;;5012029;28;20120;-81
2023/01/14 10:32:12;;;;;;;5.27;1.30;;;;;;;;;;5013047;28;20034;-80
2023/01/14 10:34:47;;;;;;;9.90;1.50;;;;;;;;;;5012331;28;20029;-81
2023/01/14 10:37:14;;;;;;;9.40;1.60;;;;;;;;;;5015580;28;20046;-82
2023/01/14 10:39:46;;;;;;;2.50;1.03;;;;;;;;;;5040390;28;20037;-82
2023/01/14 10:42:12;;;;;;;8.53;1.80;;;;;;;;;;5046817;28;20040;-80
2023/01/14 10:44:43;;;;;;;5.97;1.50;;;;;;;;;;5023180;28;20636;-80
2023/01/14 10:47:16;;;;;;;5.30;1.10;;;;;;;;;;5030972;28;20025;-82
2023/01/14 10:49:58;;;;;;;6.25;1.13;;;;;;;;;;5030814;28;20026;-80
2023/01/14 10:52:32;;;;;;;3.83;1.25;;;;;;;;;;5030921;28;20041;-81
2023/01/14 10:55:14;;;;;;;7.97;1.45;;;;;;;;;;5030221;28;20036;-80
2023/01/14 10:57:55;;;;;;;6.77;1.60;;;;;;;;;;5031069;28;20033;-82
2023/01/14 11:00:36;;;;;;;5.03;1.70;;;;;;;;;;5032707;28;20108;-81
2023/01/14 11:03:05;;;;;;;9.03;1.17;;;;;;;;;;5032602;28;20032;-81
2023/01/14 11:05:39;;;;;;;6.53;1.70;;;;;;;;;;5031135;28;20112;-81
2023/01/14 11:08:14;;;;;;;10.23;1.23;;;;;;;;;;5030568;28;20079;-81
2023/01/14 11:10:41;;;;;;;8.93;1.23;;;;;;;;;;5031241;28;20057;-80
2023/01/14 11:13:23;;;;;;;5.87;1.07;;;;;;;;;;5029674;28;20029;-81
2023/01/14 11:15:49;;;;;;;8.63;1.65;;;;;;;;;;5030040;28;20079;-80
2023/01/14 11:18:17;;;;;;;9.13;1.20;;;;;;;;;;5032046;28;20071;-81
2023/01/14 11:21:00;;;;;;;6.18;1.00;;;;;;;;;;5030986;28;20026;-81
2023/01/14 11:23:33;;;;;;;7.45;0.95;;;;;;;;;;5031165;28;20469;-81
2023/01/14 11:26:22;;;;;;;9.07;1.50;;;;;;;;;;5030295;28;20017;-80
2023/01/14 11:28:49;;;;;;;7.30;1.67;;;;;;;;;;5023337;28;20072;-80
2023/01/14 11:31:24;;;;;;;7.60;1.48;;;;;;;;;;5033296;28;20033;-82
2023/01/14 11:33:52;;;;;;;7.10;1.42;;;;;;;;;;5033191;28;20067;-81
2023/01/14 11:36:25;;;;;;;5.63;1.10;;;;;;;;;;5039146;28;20029;-82
2023/01/14 11:38:53;;;;;;;4.75;0.93;;;;;;;;;;5022423;28;20060;-82
2023/01/14 11:41:47;;;;;;;5.73;1.40;;;;;;;;;;5015573;28;20469;-82
2023/01/14 11:44:13;;;;;;;6.83;1.60;;;;;;;;;;5001975;28;20089;-82
2023/01/14 11:46:42;;;;;;;5.35;1.33;;;;;;;;;;5015445;28;20034;-81
2023/01/14 11:49:20;;;;;;;6.73;2.77;;;;;;;;;;5015245;28;20033;-81
2023/01/14 11:52:14;;;;;;;5.50;1.05;;;;;;;;;;5014171;28;20026;-82
2023/01/14 11:54:44;;;;;;;7.53;1.00;;;;;;;;;;5013956;28;20091;-80
2023/01/14 11:57:15;;;;;;;13.25;1.55;;;;;;;;;;5013788;28;20040;-81
2023/01/14 11:59:42;;;;;;;7.28;1.00;;;;;;;;;;5016048;28;20529;-83
2023/01/14 12:02:28;;;;;;;7.38;1.23;;;;;;;;;;5017099;28;20041;-81
2023/01/14 12:05:00;;;;;;;7.65;1.33;;;;;;;;;;5018430;28;20034;-80
2023/01/14 12:07:37;;;;;;;5.13;1.55;;;;;;;;;;5015748;28;20025;-80
2023/01/14 12:10:19;;;;;;;4.68;1.13;;;;;;;;;;5016308;28;20033;-81
2023/01/14 12:19:27;;;;;;;6.60;1.38;;;;;;;;;;5015004;28;20094;-80
2023/01/14 12:22:16;;;;;;;7.60;1.75;;;;;;;;;;5000474;28;20057;-79
2023/01/14 12:24:54;;;;;;;5.50;1.25;;;;;;;;;;5013706;28;20036;-81
2023/01/14 12:27:44;;;;;;;9.68;1.38;;;;;;;;;;5014624;28;20084;-80
2023/01/14 12:30:23;;;;;;;6.40;0.82;;;;;;;;;;5015481;28;20430;-80
2023/01/14 12:33:08;;;;;;;4.72;0.90;;;;;;;;;;5013012;28;20028;-80
2023/01/14 12:36:17;;;;;;;5.70;1.35;;;;;;;;;;5012250;28;20041;-81
2023/01/14 12:47:44;;;;;;;5.72;1.20;;;;;;;;;;5034183;28;20036;-82
2023/01/14 12:50:13;;;;;;;6.88;1.35;;;;;;;;;;5032092;28;20025;-81
2023/01/14 12:52:48;;;;;;;9.15;1.63;;;;;;;;;;5031841;28;20500;-82
2023/01/14 12:55:36;;;;;;;8.75;1.90;;;;;;;;;;5031865;28;20060;-80
2023/01/14 12:58:06;;;;;;;8.25;1.30;;;;;;;;;;5037040;28;20025;-81
2023/01/14 13:00:34;;;;;;;6.65;1.13;;;;;;;;;;5033769;28;20025;-81
2023/01/14 13:03:16;;;;;;;5.85;1.15;;;;;;;;;;5033715;28;20478;-80
2023/01/14 13:05:44;;;;;;;6.47;1.33;;;;;;;;;;5035038;28;20033;-80
2023/01/14 13:08:30;;;;;;;6.22;1.23;;;;;;;;;;5033716;28;20026;-80
2023/01/14 13:11:11;;;;;;;8.10;2.38;;;;;;;;;;5018178;28;20036;-81
2023/01/14 13:13:41;;;;;;;7.35;1.45;;;;;;;;;;5033123;28;20060;-80
2023/01/14 13:16:31;;;;;;;7.90;1.30;;;;;;;;;;5033424;28;20359;-82
2023/01/14 13:19:20;;;;;;;4.43;1.42;;;;;;;;;;5018005;28;20466;-82
2023/01/14 13:22:02;;;;;;;10.13;1.55;;;;;;;;;;5038215;28;20138;-85
2023/01/14 13:24:54;;;;;;;8.60;2.00;;;;;;;;;;5046517;28;20025;-81
2023/01/14 13:27:39;;;;;;;2.90;1.83;;;;;;;;;;5032426;28;20056;-81
2023/01/14 13:30:17;;;;;;;5.93;1.20;;;;;;;;;;5034119;28;20100;-81
2023/01/14 13:33:06;;;;;;;8.05;1.38;;;;;;;;;;5033419;28;20033;-79
2023/01/14 13:35:36;;;;;;;7.72;2.10;;;;;;;;;;5033328;28;20025;-83
2023/01/14 13:38:28;;;;;;;7.47;1.52;;;;;;;;;;5023012;28;20113;-81
2023/01/14 13:41:06;;;;;;;10.38;1.75;;;;;;;;;;5012386;28;20026;-80
2023/01/14 13:43:36;;;;;;;6.22;1.65;;;;;;;;;;5012383;28;20045;-80
2023/01/14 13:46:05;;;;;;;7.35;1.85;;;;;;;;;;5014416;28;20050;-77
2023/01/14 13:48:50;;;;;;;5.43;1.15;;;;;;;;;;5012231;28;20026;-83
2023/01/14 13:51:38;;;;;;;10.68;2.35;;;;;;;;;;5013284;28;20057;-82
2023/01/14 13:54:22;;;;;;;8.27;1.45;;;;;;;;;;5012423;28;20030;-81
2023/01/14 13:57:09;;;;;;;14.60;1.60;;;;;;;;;;5012152;28;20381;-83
2023/01/14 13:59:36;;;;;;;7.82;1.20;;;;;;;;;;5011739;28;20124;-82
2023/01/14 14:02:39;;;;;;;2.58;1.33;;;;;;;;;;5011496;28;20207;-82
2023/01/14 14:05:20;;;;;;;6.60;1.73;;;;;;;;;;5014019;28;20035;-80
2023/01/14 14:07:45;;;;;;;5.10;1.58;;;;;;;;;;5035850;28;20025;-81
2023/01/14 14:10:13;;;;;;;11.75;2.45;;;;;;;;;;5032650;28;20119;-82
2023/01/14 14:15:34;;;;;;;5.97;1.30;;;;;;;;;;5030622;28;20048;-81
2023/01/14 14:18:02;;;;;;;6.53;1.70;;;;;;;;;;5031550;28;20073;-82
2023/01/14 14:20:43;;;;;;;6.15;1.83;;;;;;;;;;5030219;28;20037;-79
2023/01/14 14:23:21;;;;;;;8.90;1.60;;;;;;;;;;5031087;28;20032;-82
2023/01/14 14:25:47;;;;;;;9.43;1.80;;;;;;;;;;5031202;28;20033;-82
2023/01/14 14:28:20;;;;;;;9.00;1.88;;;;;;;;;;5031642;28;20044;-80
2023/01/14 14:30:55;;;;;;;6.18;1.60;;;;;;;;;;5036514;28;20037;-81
2023/01/14 14:33:33;;;;;;;9.80;1.73;;;;;;;;;;5034431;28;20026;-82
2023/01/14 14:35:59;;;;;;;4.75;1.60;;;;;;;;;;5034245;28;20030;-81
2023/01/14 14:38:26;;;;;;;5.97;1.88;;;;;;;;;;5035051;28;20025;-80
2023/01/14 14:40:52;;;;;;;4.40;1.30;;;;;;;;;;5034124;28;20035;-80
2023/01/14 14:43:26;;;;;;;4.60;1.58;;;;;;;;;;5035575;28;20129;-81
2023/01/14 14:46:21;;;;;;;5.88;1.20;;;;;;;;;;5038131;28;20029;-81
2023/01/14 14:48:47;;;;;;;6.63;1.25;;;;;;;;;;5034426;28;20044;-81
2023/01/14 14:51:22;;;;;;;2.83;1.33;;;;;;;;;;5035426;28;20025;-82
2023/01/14 14:53:48;;;;;;;18.17;2.23;;;;;;;;;;5039716;28;20044;-80
2023/01/14 14:56:18;;;;;;;5.50;1.85;;;;;;;;;;5035297;28;20034;-81
2023/01/14 14:58:51;;;;;;;1.92;1.02;;;;;;;;;;5017013;28;20044;-80
2023/01/14 15:01:22;;;;;;;3.97;1.27;;;;;;;;;;5033590;28;20354;-80
2023/01/14 15:03:51;;;;;;;4.85;1.38;;;;;;;;;;5032199;28;20087;-82
2023/01/14 15:06:18;;;;;;;3.45;1.30;;;;;;;;;;5032530;28;20435;-80
2023/01/14 15:09:04;;;;;;;3.08;1.30;;;;;;;;;;5032859;28;20091;-81
2023/01/14 15:11:42;;;;;;;16.17;1.70;;;;;;;;;;5036319;28;20053;-81
2023/01/14 15:14:26;;;;;;;6.50;1.40;;;;;;;;;;5035838;28;20068;-81
2023/01/14 15:16:53;;;;;;;5.80;1.33;;;;;;;;;;5036217;28;20442;-81
2023/01/14 15:19:19;;;;;;;8.67;1.60;;;;;;;;;;5035759;28;20429;-81
2023/01/14 15:21:45;;;;;;;7.55;1.67;;;;;;;;;;5036593;28;20067;-80
2023/01/14 15:24:21;;;;;;;6.53;1.50;;;;;;;;;;5036887;28;20182;-82
2023/01/14 15:26:47;;;;;;;11.97;2.27;;;;;;;;;;5035009;28;20079;-82
2023/01/14 15:29:18;;;;;;;4.03;1.80;;;;;;;;;;5018437;28;20653;-82
2023/01/14 15:31:44;;;;;;;5.75;1.30;;;;;;;;;;5035444;28;20024;-82
2023/01/14 15:34:15;;;;;;;8.20;1.60;;;;;;;;;;5035788;28;20115;-82
2023/01/14 15:36:44;;;;;;;8.40;1.65;;;;;;;;;;5018005;28;20037;-81
2023/01/14 15:39:15;;;;;;;5.97;1.20;;;;;;;;;;5033447;28;20088;-82
2023/01/14 15:41:53;;;;;;;7.23;1.40;;;;;;;;;;5035754;28;20140;-80
2023/01/14 15:44:24;;;;;;;3.77;1.50;;;;;;;;;;5035762;28;20087;-81
2023/01/14 15:46:49;;;;;;;6.03;1.70;;;;;;;;;;5035181;28;20033;-82
2023/01/14 15:49:17;;;;;;;5.67;1.30;;;;;;;;;;5034730;28;20108;-81
2023/01/14 15:51:47;;;;;;;4.53;1.30;;;;;;;;;;5037579;28;20032;-82